sensor_id;sensor_type;location;lat;lon;timestamp;pressure;altitude;pressure_sealevel;temperature;humidity
56737;BME280;42618;51.226;4.910;2023-04-12T00:00:53;49798.78;;;-146.94;100.00
56737;BME280;42618;51.226;4.910;2023-04-12T00:03:20;49812.72;;;-146.94;100.00
56737;BME280;42618;51.226;4.910;2023-04-12T00:05:47;49784.81;;;-146.94;100.00
56737;BME280;42618;51.226;4.910;2023-04-12T00:08:21;49794.78;;;-146.94;100.00
56737;BME280;42618;51.226;4.910;2023-04-12T00:11:00;49776.84;;;-146.94;100.00
56737;BME280;42618;51.226;4.910;2023-04-12T00:13:28;49778.84;;;-146.94;100.00
56737;BME280;42618;51.226;4.910;2023-04-12T00:15:55;49772.84;;;-146.94;100.00
56737;BME280;42618;51.226;4.910;2023-04-12T00:18:22;49788.81;;;-146.94;100.00
56737;BME280;42618;51.226;4.910;2023-04-12T00:20:51;49774.84;;;-146.94;100.00
56737;BME280;42618;51.226;4.910;2023-04-12T00:23:18;49792.78;;;-146.94;100.00
56737;BME280;42618;51.226;4.910;2023-04-12T00:25:45;49788.81;;;-146.94;100.00
56737;BME280;42618;51.226;4.910;2023-04-12T00:28:13;49772.84;;;-146.94;100.00
56737;BME280;42618;51.226;4.910;2023-04-12T00:30:39;49800.78;;;-146.94;100.00
56737;BME280;42618;51.226;4.910;2023-04-12T00:33:07;49796.78;;;-146.94;100.00
56737;BME280;42618;51.226;4.910;2023-04-12T00:35:34;49774.84;;;-146.94;100.00
56737;BME280;42618;51.226;4.910;2023-04-12T00:38:00;49792.78;;;-146.94;100.00
56737;BME280;42618;51.226;4.910;2023-04-12T00:40:31;49768.88;;;-146.94;100.00
56737;BME280;42618;51.226;4.910;2023-04-12T00:42:59;49790.81;;;-146.94;100.00
56737;BME280;42618;51.226;4.910;2023-04-12T00:45:26;49822.69;;;-146.94;100.00
56737;BME280;42618;51.226;4.910;2023-04-12T00:47:53;49758.91;;;-146.94;100.00
56737;BME280;42618;51.226;4.910;2023-04-12T00:50:21;49762.88;;;-146.94;100.00
56737;BME280;42618;51.226;4.910;2023-04-12T00:52:49;49812.72;;;-146.94;100.00
56737;BME280;42618;51.226;4.910;2023-04-12T00:55:17;49830.66;;;-146.94;100.00
56737;BME280;42618;51.226;4.910;2023-04-12T00:57:44;49782.81;;;-146.94;100.00
56737;BME280;42618;51.226;4.910;2023-04-12T01:00:12;49812.72;;;-146.94;100.00
56737;BME280;42618;51.226;4.910;2023-04-12T01:02:45;49786.81;;;-146.94;100.00
56737;BME280;42618;51.226;4.910;2023-04-12T01:05:15;49790.81;;;-146.94;100.00
56737;BME280;42618;51.226;4.910;2023-04-12T01:08:14;49725.00;;;-146.94;100.00
56737;BME280;42618;51.226;4.910;2023-04-12T01:10:53;49780.84;;;-146.94;100.00
56737;BME280;42618;51.226;4.910;2023-04-12T01:13:54;49776.84;;;-146.94;100.00
56737;BME280;42618;51.226;4.910;2023-04-12T01:16:41;49810.75;;;-146.94;100.00
56737;BME280;42618;51.226;4.910;2023-04-12T01:19:35;49798.78;;;-146.94;100.00
56737;BME280;42618;51.226;4.910;2023-04-12T01:22:36;49770.88;;;-146.94;100.00
56737;BME280;42618;51.226;4.910;2023-04-12T01:28:01;49798.78;;;-146.94;100.00
56737;BME280;42618;51.226;4.910;2023-04-12T01:30:29;49798.78;;;-146.94;100.00
56737;BME280;42618;51.226;4.910;2023-04-12T01:33:00;49818.72;;;-146.94;100.00
56737;BME280;42618;51.226;4.910;2023-04-12T01:35:30;49800.78;;;-146.94;100.00
56737;BME280;42618;51.226;4.910;2023-04-12T01:38:00;49804.75;;;-146.94;100.00
56737;BME280;42618;51.226;4.910;2023-04-12T01:40:29;49806.75;;;-146.94;100.00
56737;BME280;42618;51.226;4.910;2023-04-12T01:43:13;49814.72;;;-146.94;100.00
56737;BME280;42618;51.226;4.910;2023-04-12T01:45:41;49770.88;;;-146.94;100.00
56737;BME280;42618;51.226;4.910;2023-04-12T01:48:10;49818.72;;;-146.94;100.00
56737;BME280;42618;51.226;4.910;2023-04-12T01:50:50;49794.78;;;-146.94;100.00
56737;BME280;42618;51.226;4.910;2023-04-12T01:53:27;49822.69;;;-146.94;100.00
56737;BME280;42618;51.226;4.910;2023-04-12T01:56:05;49812.72;;;-146.94;100.00
56737;BME280;42618;51.226;4.910;2023-04-12T01:58:33;49788.81;;;-146.94;100.00
56737;BME280;42618;51.226;4.910;2023-04-12T02:01:01;49766.88;;;-146.94;100.00
56737;BME280;42618;51.226;4.910;2023-04-12T02:03:29;49776.84;;;-146.94;100.00
56737;BME280;42618;51.226;4.910;2023-04-12T02:05:58;49784.81;;;-146.94;100.00
56737;BME280;42618;51.226;4.910;2023-04-12T02:08:25;49750.94;;;-146.94;100.00
56737;BME280;42618;51.226;4.910;2023-04-12T02:10:51;49802.75;;;-146.94;100.00
56737;BME280;42618;51.226;4.910;2023-04-12T02:13:18;49812.72;;;-146.94;100.00
56737;BME280;42618;51.226;4.910;2023-04-12T02:15:45;49798.78;;;-146.94;100.00
56737;BME280;42618;51.226;4.910;2023-04-12T02:18:11;49808.75;;;-146.94;100.00
56737;BME280;42618;51.226;4.910;2023-04-12T02:20:40;49828.69;;;-146.94;100.00
56737;BME280;42618;51.226;4.910;2023-04-12T02:23:07;49792.78;;;-146.94;100.00
56737;BME280;42618;51.226;4.910;2023-04-12T02:25:35;49788.81;;;-146.94;100.00
56737;BME280;42618;51.226;4.910;2023-04-12T02:28:02;49802.75;;;-146.94;100.00
56737;BME280;42618;51.226;4.910;2023-04-12T02:30:29;49830.66;;;-146.94;100.00
56737;BME280;42618;51.226;4.910;2023-04-12T02:32:56;49806.75;;;-146.94;100.00
56737;BME280;42618;51.226;4.910;2023-04-12T02:35:29;49794.78;;;-146.94;100.00
56737;BME280;42618;51.226;4.910;2023-04-12T02:38:06;49760.91;;;-146.94;100.00
56737;BME280;42618;51.226;4.910;2023-04-12T02:40:40;49804.75;;;-146.94;100.00
56737;BME280;42618;51.226;4.910;2023-04-12T02:43:11;49818.72;;;-146.94;100.00
56737;BME280;42618;51.226;4.910;2023-04-12T02:45:42;49782.81;;;-146.94;100.00
56737;BME280;42618;51.226;4.910;2023-04-12T02:48:09;49802.75;;;-146.94;100.00
56737;BME280;42618;51.226;4.910;2023-04-12T02:50:37;49774.84;;;-146.94;100.00
56737;BME280;42618;51.226;4.910;2023-04-12T02:53:14;49808.75;;;-146.94;100.00
56737;BME280;42618;51.226;4.910;2023-04-12T02:55:45;49800.78;;;-146.94;100.00
56737;BME280;42618;51.226;4.910;2023-04-12T02:58:13;49794.78;;;-146.94;100.00
56737;BME280;42618;51.226;4.910;2023-04-12T03:00:45;49816.72;;;-146.94;100.00
56737;BME280;42618;51.226;4.910;2023-04-12T03:03:14;49780.84;;;-146.94;100.00
56737;BME280;42618;51.226;4.910;2023-04-12T03:05:45;49776.84;;;-146.94;100.00
56737;BME280;42618;51.226;4.910;2023-04-12T03:08:15;49788.81;;;-146.94;100.00
56737;BME280;42618;51.226;4.910;2023-04-12T03:10:50;49804.75;;;-146.94;100.00
56737;BME280;42618;51.226;4.910;2023-04-12T03:13:17;49840.63;;;-146.94;100.00
56737;BME280;42618;51.226;4.910;2023-04-12T03:15:47;49834.66;;;-146.94;100.00
56737;BME280;42618;51.226;4.910;2023-04-12T03:18:16;49782.81;;;-146.94;100.00
56737;BME280;42618;51.226;4.910;2023-04-12T03:20:46;49782.81;;;-146.94;100.00
56737;BME280;42618;51.226;4.910;2023-04-12T03:23:15;49802.75;;;-146.94;100.00
56737;BME280;42618;51.226;4.910;2023-04-12T03:25:46;49802.75;;;-146.94;100.00
56737;BME280;42618;51.226;4.910;2023-04-12T03:28:31;49826.69;;;-146.94;100.00
56737;BME280;42618;51.226;4.910;2023-04-12T03:30:59;49806.75;;;-146.94;100.00
56737;BME280;42618;51.226;4.910;2023-04-12T03:33:36;49804.75;;;-146.94;100.00
56737;BME280;42618;51.226;4.910;2023-04-12T03:36:04;49818.72;;;-146.94;100.00
56737;BME280;42618;51.226;4.910;2023-04-12T03:38:30;49832.66;;;-146.94;100.00
56737;BME280;42618;51.226;4.910;2023-04-12T03:40:58;49818.72;;;-146.94;100.00
56737;BME280;42618;51.226;4.910;2023-04-12T03:43:35;49800.78;;;-146.94;100.00
56737;BME280;42618;51.226;4.910;2023-04-12T03:46:09;49772.84;;;-146.94;100.00
56737;BME280;42618;51.226;4.910;2023-04-12T03:48:36;49836.66;;;-146.94;100.00
56737;BME280;42618;51.226;4.910;2023-04-12T03:51:04;49836.66;;;-146.94;100.00
56737;BME280;42618;51.226;4.910;2023-04-12T03:53:40;49798.78;;;-146.94;100.00
56737;BME280;42618;51.226;4.910;2023-04-12T03:56:11;49806.75;;;-146.94;100.00
56737;BME280;42618;51.226;4.910;2023-04-12T03:58:39;49840.63;;;-146.94;100.00
56737;BME280;42618;51.226;4.910;2023-04-12T04:01:07;49790.81;;;-146.94;100.00
56737;BME280;42618;51.226;4.910;2023-04-12T04:03:35;49852.59;;;-146.94;100.00
56737;BME280;42618;51.226;4.910;2023-04-12T04:06:22;49830.66;;;-146.94;100.00
56737;BME280;42618;51.226;4.910;2023-04-12T04:08:52;49810.75;;;-146.94;100.00
56737;BME280;42618;51.226;4.910;2023-04-12T04:11:20;49818.72;;;-146.94;100.00
56737;BME280;42618;51.226;4.910;2023-04-12T04:13:51;49802.75;;;-146.94;100.00
56737;BME280;42618;51.226;4.910;2023-04-12T04:16:18;49828.69;;;-146.94;100.00
56737;BME280;42618;51.226;4.910;2023-04-12T04:18:47;49842.63;;;-146.94;100.00
56737;BME280;42618;51.226;4.910;2023-04-12T04:21:17;49790.81;;;-146.94;100.00
56737;BME280;42618;51.226;4.910;2023-04-12T04:23:45;49790.81;;;-146.94;100.00
56737;BME280;42618;51.226;4.910;2023-04-12T04:26:15;49822.69;;;-146.94;100.00
56737;BME280;42618;51.226;4.910;2023-04-12T04:28:53;49838.66;;;-146.94;100.00
56737;BME280;42618;51.226;4.910;2023-04-12T04:31:25;49844.63;;;-146.94;100.00
56737;BME280;42618;51.226;4.910;2023-04-12T04:33:52;49812.72;;;-146.94;100.00
56737;BME280;42618;51.226;4.910;2023-04-12T04:36:26;49788.81;;;-146.94;100.00
56737;BME280;42618;51.226;4.910;2023-04-12T04:38:54;49826.69;;;-146.94;100.00
56737;BME280;42618;51.226;4.910;2023-04-12T04:41:39;49804.75;;;-146.94;100.00
56737;BME280;42618;51.226;4.910;2023-04-12T04:44:16;49806.75;;;-146.94;100.00
56737;BME280;42618;51.226;4.910;2023-04-12T04:46:53;49826.69;;;-146.94;100.00
56737;BME280;42618;51.226;4.910;2023-04-12T04:49:20;49814.72;;;-146.94;100.00
56737;BME280;42618;51.226;4.910;2023-04-12T04:51:47;49814.72;;;-146.94;100.00
56737;BME280;42618;51.226;4.910;2023-04-12T04:54:14;49778.84;;;-146.94;100.00
56737;BME280;42618;51.226;4.910;2023-04-12T04:56:42;49816.72;;;-146.94;100.00
56737;BME280;42618;51.226;4.910;2023-04-12T04:59:12;49798.78;;;-146.94;100.00
56737;BME280;42618;51.226;4.910;2023-04-12T05:01:39;49814.72;;;-146.94;100.00
56737;BME280;42618;51.226;4.910;2023-04-12T05:04:06;49806.75;;;-146.94;100.00
56737;BME280;42618;51.226;4.910;2023-04-12T05:06:33;49798.78;;;-146.94;100.00
56737;BME280;42618;51.226;4.910;2023-04-12T05:09:02;49856.59;;;-146.94;100.00
56737;BME280;42618;51.226;4.910;2023-04-12T05:11:33;49826.69;;;-146.94;100.00
56737;BME280;42618;51.226;4.910;2023-04-12T05:14:02;49856.59;;;-146.94;100.00
56737;BME280;42618;51.226;4.910;2023-04-12T05:16:28;49814.72;;;-146.94;100.00
56737;BME280;42618;51.226;4.910;2023-04-12T05:18:55;49792.78;;;-146.94;100.00
56737;BME280;42618;51.226;4.910;2023-04-12T05:21:23;49818.72;;;-146.94;100.00
56737;BME280;42618;51.226;4.910;2023-04-12T05:23:50;49810.75;;;-146.94;100.00
56737;BME280;42618;51.226;4.910;2023-04-12T05:26:17;49804.75;;;-146.94;100.00
56737;BME280;42618;51.226;4.910;2023-04-12T05:28:47;49814.72;;;-146.94;100.00
56737;BME280;42618;51.226;4.910;2023-04-12T05:31:18;49826.69;;;-146.94;100.00
56737;BME280;42618;51.226;4.910;2023-04-12T05:33:45;49814.72;;;-146.94;100.00
56737;BME280;42618;51.226;4.910;2023-04-12T05:36:12;49838.66;;;-146.94;100.00
56737;BME280;42618;51.226;4.910;2023-04-12T05:38:39;49844.63;;;-146.94;100.00
56737;BME280;42618;51.226;4.910;2023-04-12T05:41:10;49822.69;;;-146.94;100.00
56737;BME280;42618;51.226;4.910;2023-04-12T05:43:37;49854.59;;;-146.94;100.00
56737;BME280;42618;51.226;4.910;2023-04-12T05:46:07;49822.69;;;-146.94;100.00
56737;BME280;42618;51.226;4.910;2023-04-12T05:48:34;49826.69;;;-146.94;100.00
56737;BME280;42618;51.226;4.910;2023-04-12T05:51:01;49834.66;;;-146.94;100.00
56737;BME280;42618;51.226;4.910;2023-04-12T05:53:30;49822.69;;;-146.94;100.00
56737;BME280;42618;51.226;4.910;2023-04-12T05:56:01;49808.75;;;-146.94;100.00
56737;BME280;42618;51.226;4.910;2023-04-12T05:58:28;49812.72;;;-146.94;100.00
56737;BME280;42618;51.226;4.910;2023-04-12T06:00:56;49810.75;;;-146.94;100.00
56737;BME280;42618;51.226;4.910;2023-04-12T06:03:23;49842.63;;;-146.94;100.00
56737;BME280;42618;51.226;4.910;2023-04-12T06:05:54;49842.63;;;-146.94;100.00
56737;BME280;42618;51.226;4.910;2023-04-12T06:08:20;49804.75;;;-146.94;100.00
56737;BME280;42618;51.226;4.910;2023-04-12T06:10:47;49834.66;;;-146.94;100.00
56737;BME280;42618;51.226;4.910;2023-04-12T06:13:14;49850.59;;;-146.94;100.00
56737;BME280;42618;51.226;4.910;2023-04-12T06:15:41;49844.63;;;-146.94;100.00
56737;BME280;42618;51.226;4.910;2023-04-12T06:18:09;49832.66;;;-146.94;100.00
56737;BME280;42618;51.226;4.910;2023-04-12T06:20:38;49828.69;;;-146.94;100.00
56737;BME280;42618;51.226;4.910;2023-04-12T06:23:06;49862.56;;;-146.94;100.00
56737;BME280;42618;51.226;4.910;2023-04-12T06:25:33;49842.63;;;-146.94;100.00
56737;BME280;42618;51.226;4.910;2023-04-12T06:28:01;49780.84;;;-146.94;100.00
56737;BME280;42618;51.226;4.910;2023-04-12T06:30:29;49772.84;;;-146.94;100.00
56737;BME280;42618;51.226;4.910;2023-04-12T06:32:56;49820.69;;;-146.94;100.00
56737;BME280;42618;51.226;4.910;2023-04-12T06:35:22;49840.63;;;-146.94;100.00
56737;BME280;42618;51.226;4.910;2023-04-12T06:37:50;49842.63;;;-146.94;100.00
56737;BME280;42618;51.226;4.910;2023-04-12T06:40:16;49826.69;;;-146.94;100.00
56737;BME280;42618;51.226;4.910;2023-04-12T06:42:43;49812.72;;;-146.94;100.00
56737;BME280;42618;51.226;4.910;2023-04-12T06:45:10;49840.63;;;-146.94;100.00
56737;BME280;42618;51.226;4.910;2023-04-12T06:47:37;49826.69;;;-146.94;100.00
56737;BME280;42618;51.226;4.910;2023-04-12T06:50:04;49788.81;;;-146.94;100.00
56737;BME280;42618;51.226;4.910;2023-04-12T06:52:32;49838.66;;;-146.94;100.00
56737;BME280;42618;51.226;4.910;2023-04-12T06:54:59;49806.75;;;-146.94;100.00
56737;BME280;42618;51.226;4.910;2023-04-12T06:57:25;49826.69;;;-146.94;100.00
56737;BME280;42618;51.226;4.910;2023-04-12T06:59:52;49806.75;;;-146.94;100.00
56737;BME280;42618;51.226;4.910;2023-04-12T07:02:19;49820.69;;;-146.94;100.00
56737;BME280;42618;51.226;4.910;2023-04-12T07:04:46;49814.72;;;-146.94;100.00
56737;BME280;42618;51.226;4.910;2023-04-12T07:07:13;49838.66;;;-146.94;100.00
56737;BME280;42618;51.226;4.910;2023-04-12T07:09:39;49834.66;;;-146.94;100.00
56737;BME280;42618;51.226;4.910;2023-04-12T07:12:06;49820.69;;;-146.94;100.00
56737;BME280;42618;51.226;4.910;2023-04-12T07:14:33;49838.66;;;-146.94;100.00
56737;BME280;42618;51.226;4.910;2023-04-12T07:17:00;49832.66;;;-146.94;100.00
56737;BME280;42618;51.226;4.910;2023-04-12T07:19:26;49838.66;;;-146.94;100.00
56737;BME280;42618;51.226;4.910;2023-04-12T07:21:55;49818.72;;;-146.94;100.00
56737;BME280;42618;51.226;4.910;2023-04-12T07:24:21;49816.72;;;-146.94;100.00
56737;BME280;42618;51.226;4.910;2023-04-12T07:26:48;49822.69;;;-146.94;100.00
56737;BME280;42618;51.226;4.910;2023-04-12T07:29:15;49852.59;;;-146.94;100.00
56737;BME280;42618;51.226;4.910;2023-04-12T07:31:42;49838.66;;;-146.94;100.00
56737;BME280;42618;51.226;4.910;2023-04-12T07:34:10;49816.72;;;-146.94;100.00
56737;BME280;42618;51.226;4.910;2023-04-12T07:36:37;49836.66;;;-146.94;100.00
56737;BME280;42618;51.226;4.910;2023-04-12T07:39:04;49810.75;;;-146.94;100.00
56737;BME280;42618;51.226;4.910;2023-04-12T07:41:31;49826.69;;;-146.94;100.00
56737;BME280;42618;51.226;4.910;2023-04-12T07:43:58;49862.56;;;-146.94;100.00
56737;BME280;42618;51.226;4.910;2023-04-12T07:46:24;49826.69;;;-146.94;100.00
56737;BME280;42618;51.226;4.910;2023-04-12T07:48:51;49822.69;;;-146.94;100.00
56737;BME280;42618;51.226;4.910;2023-04-12T07:51:18;49866.56;;;-146.94;100.00
56737;BME280;42618;51.226;4.910;2023-04-12T07:53:45;49842.63;;;-146.94;100.00
56737;BME280;42618;51.226;4.910;2023-04-12T07:56:14;49822.69;;;-146.94;100.00
56737;BME280;42618;51.226;4.910;2023-04-12T07:58:41;49830.66;;;-146.94;100.00
56737;BME280;42618;51.226;4.910;2023-04-12T08:01:07;49840.63;;;-146.94;100.00
56737;BME280;42618;51.226;4.910;2023-04-12T08:03:34;49808.75;;;-146.94;100.00
56737;BME280;42618;51.226;4.910;2023-04-12T08:06:01;49792.78;;;-146.94;100.00
56737;BME280;42618;51.226;4.910;2023-04-12T08:08:28;49830.66;;;-146.94;100.00
56737;BME280;42618;51.226;4.910;2023-04-12T08:10:54;49798.78;;;-146.94;100.00
56737;BME280;42618;51.226;4.910;2023-04-12T08:13:21;49818.72;;;-146.94;100.00
56737;BME280;42618;51.226;4.910;2023-04-12T08:15:48;49798.78;;;-146.94;100.00
56737;BME280;42618;51.226;4.910;2023-04-12T08:18:15;49836.66;;;-146.94;100.00
56737;BME280;42618;51.226;4.910;2023-04-12T08:20:41;49820.69;;;-146.94;100.00
56737;BME280;42618;51.226;4.910;2023-04-12T08:23:11;49784.81;;;-146.94;100.00
56737;BME280;42618;51.226;4.910;2023-04-12T08:25:38;49802.75;;;-146.94;100.00
56737;BME280;42618;51.226;4.910;2023-04-12T08:28:05;49852.59;;;-146.94;100.00
56737;BME280;42618;51.226;4.910;2023-04-12T08:30:35;49834.66;;;-146.94;100.00
56737;BME280;42618;51.226;4.910;2023-04-12T08:33:02;49838.66;;;-146.94;100.00
56737;BME280;42618;51.226;4.910;2023-04-12T08:35:29;49808.75;;;-146.94;100.00
56737;BME280;42618;51.226;4.910;2023-04-12T08:37:55;49870.53;;;-146.94;100.00
56737;BME280;42618;51.226;4.910;2023-04-12T08:40:22;49806.75;;;-146.94;100.00
56737;BME280;42618;51.226;4.910;2023-04-12T08:42:51;49816.72;;;-146.94;100.00
56737;BME280;42618;51.226;4.910;2023-04-12T08:45:24;49768.88;;;-146.94;100.00
56737;BME280;42618;51.226;4.910;2023-04-12T08:47:54;49820.69;;;-146.94;100.00
56737;BME280;42618;51.226;4.910;2023-04-12T08:50:22;49780.84;;;-146.94;100.00
56737;BME280;42618;51.226;4.910;2023-04-12T08:52:49;49790.81;;;-146.94;100.00
56737;BME280;42618;51.226;4.910;2023-04-12T08:55:17;49774.84;;;-146.94;100.00
56737;BME280;42618;51.226;4.910;2023-04-12T08:57:44;49778.84;;;-146.94;100.00
56737;BME280;42618;51.226;4.910;2023-04-12T09:00:12;49802.75;;;-146.94;100.00
56737;BME280;42618;51.226;4.910;2023-04-12T09:02:40;49794.78;;;-146.94;100.00
56737;BME280;42618;51.226;4.910;2023-04-12T09:05:11;49784.81;;;-146.94;100.00
56737;BME280;42618;51.226;4.910;2023-04-12T09:07:40;49764.88;;;-146.94;100.00
56737;BME280;42618;51.226;4.910;2023-04-12T09:10:07;49806.75;;;-146.94;100.00
56737;BME280;42618;51.226;4.910;2023-04-12T09:12:44;49830.66;;;-146.94;100.00
56737;BME280;42618;51.226;4.910;2023-04-12T09:15:13;49786.81;;;-146.94;100.00
56737;BME280;42618;51.226;4.910;2023-04-12T09:17:41;49812.72;;;-146.94;100.00
56737;BME280;42618;51.226;4.910;2023-04-12T09:22:37;49814.72;;;-146.94;100.00
56737;BME280;42618;51.226;4.910;2023-04-12T09:25:13;49774.84;;;-146.94;100.00
56737;BME280;42618;51.226;4.910;2023-04-12T09:27:50;49802.75;;;-146.94;100.00
56737;BME280;42618;51.226;4.910;2023-04-12T09:30:18;49778.84;;;-146.94;100.00
56737;BME280;42618;51.226;4.910;2023-04-12T09:32:46;49802.75;;;-146.94;100.00
56737;BME280;42618;51.226;4.910;2023-04-12T09:35:15;49778.84;;;-146.94;99.32
56737;BME280;42618;51.226;4.910;2023-04-12T09:37:41;49804.75;;;-146.94;100.00
56737;BME280;42618;51.226;4.910;2023-04-12T09:40:09;49790.81;;;-146.94;99.12
56737;BME280;42618;51.226;4.910;2023-04-12T09:42:49;49774.84;;;-146.94;93.72
56737;BME280;42618;51.226;4.910;2023-04-12T09:45:23;49770.88;;;-146.94;99.25
56737;BME280;42618;51.226;4.910;2023-04-12T09:47:52;49802.75;;;-146.94;97.90
56737;BME280;42618;51.226;4.910;2023-04-12T09:50:22;49798.78;;;-146.94;91.78
56737;BME280;42618;51.226;4.910;2023-04-12T09:52:52;49798.78;;;-146.94;98.49
56737;BME280;42618;51.226;4.910;2023-04-12T09:55:23;49802.75;;;-146.94;97.26
56737;BME280;42618;51.226;4.910;2023-04-12T09:57:51;49788.81;;;-146.94;96.29
56737;BME280;42618;51.226;4.910;2023-04-12T10:00:22;49794.78;;;-146.94;92.65
56737;BME280;42618;51.226;4.910;2023-04-12T10:02:50;49768.88;;;-146.94;95.63
56737;BME280;42618;51.226;4.910;2023-04-12T10:05:20;49832.66;;;-146.94;97.21
56737;BME280;42618;51.226;4.910;2023-04-12T10:07:48;49826.69;;;-146.94;97.46
56737;BME280;42618;51.226;4.910;2023-04-12T10:10:17;49782.81;;;-146.94;100.00
56737;BME280;42618;51.226;4.910;2023-04-12T10:12:46;49782.81;;;-146.94;100.00
56737;BME280;42618;51.226;4.910;2023-04-12T10:15:14;49798.78;;;-146.94;100.00
56737;BME280;42618;51.226;4.910;2023-04-12T10:17:51;49808.75;;;-146.94;99.01
56737;BME280;42618;51.226;4.910;2023-04-12T10:20:20;49794.78;;;-146.94;98.78
56737;BME280;42618;51.226;4.910;2023-04-12T10:22:51;49802.75;;;-146.94;94.49
56737;BME280;42618;51.226;4.910;2023-04-12T10:25:23;49774.84;;;-146.94;92.38
56737;BME280;42618;51.226;4.910;2023-04-12T10:27:51;49774.84;;;-146.94;89.94
56737;BME280;42618;51.226;4.910;2023-04-12T10:38:15;49798.78;;;-146.94;82.03
56737;BME280;42618;51.226;4.910;2023-04-12T10:41:14;49768.88;;;-146.94;84.11
56737;BME280;42618;51.226;4.910;2023-04-12T10:43:49;49774.84;;;-146.94;78.91
56737;BME280;42618;51.226;4.910;2023-04-12T10:49:07;49762.88;;;-146.94;77.61
56737;BME280;42618;51.226;4.910;2023-04-12T10:51:35;49804.75;;;-146.94;79.08
56737;BME280;42618;51.226;4.910;2023-04-12T10:56:37;49788.81;;;-146.94;79.89
56737;BME280;42618;51.226;4.910;2023-04-12T10:59:07;49756.91;;;-146.94;78.33
56737;BME280;42618;51.226;4.910;2023-04-12T11:01:41;49842.63;;;-146.94;77.80
56737;BME280;42618;51.226;4.910;2023-04-12T11:09:44;49802.75;;;-146.94;77.65
56737;BME280;42618;51.226;4.910;2023-04-12T11:12:20;49774.84;;;-146.94;74.73
56737;BME280;42618;51.226;4.910;2023-04-12T11:14:48;49804.75;;;-146.94;77.32
56737;BME280;42618;51.226;4.910;2023-04-12T11:17:20;49838.66;;;-146.94;80.95
56737;BME280;42618;51.226;4.910;2023-04-12T11:19:56;49804.75;;;-146.94;83.25
56737;BME280;42618;51.226;4.910;2023-04-12T11:22:28;49776.84;;;-146.94;86.97
56737;BME280;42618;51.226;4.910;2023-04-12T11:24:58;49790.81;;;-146.94;92.74
56737;BME280;42618;51.226;4.910;2023-04-12T11:27:26;49788.81;;;-146.94;94.31
56737;BME280;42618;51.226;4.910;2023-04-12T11:29:57;49788.81;;;-146.94;100.00
56737;BME280;42618;51.226;4.910;2023-04-12T11:32:27;49804.75;;;-146.94;100.00
56737;BME280;42618;51.226;4.910;2023-04-12T11:34:55;49804.75;;;-146.94;98.61
56737;BME280;42618;51.226;4.910;2023-04-12T11:37:23;49780.84;;;-146.94;96.19
56737;BME280;42618;51.226;4.910;2023-04-12T11:39:55;49816.72;;;-146.94;94.85
56737;BME280;42618;51.226;4.910;2023-04-12T11:42:23;49806.75;;;-146.94;94.36
56737;BME280;42618;51.226;4.910;2023-04-12T11:44:51;49750.94;;;-146.94;93.24
56737;BME280;42618;51.226;4.910;2023-04-12T11:47:27;49792.78;;;-146.94;93.42
56737;BME280;42618;51.226;4.910;2023-04-12T11:49:56;49798.78;;;-146.94;93.46
56737;BME280;42618;51.226;4.910;2023-04-12T11:52:28;49782.81;;;-146.94;97.28
56737;BME280;42618;51.226;4.910;2023-04-12T11:54:59;49798.78;;;-146.94;97.96
56737;BME280;42618;51.226;4.910;2023-04-12T11:57:26;49754.91;;;-146.94;98.59
56737;BME280;42618;51.226;4.910;2023-04-12T11:59:56;49798.78;;;-146.94;96.88
56737;BME280;42618;51.226;4.910;2023-04-12T12:02:25;49798.78;;;-146.94;97.48
56737;BME280;42618;51.226;4.910;2023-04-12T12:04:58;49794.78;;;-146.94;97.97
56737;BME280;42618;51.226;4.910;2023-04-12T12:07:25;49776.84;;;-146.94;99.44
56737;BME280;42618;51.226;4.910;2023-04-12T12:09:53;49790.81;;;-146.94;99.49
56737;BME280;42618;51.226;4.910;2023-04-12T12:12:22;49798.78;;;-146.94;99.12
56737;BME280;42618;51.226;4.910;2023-04-12T12:14:49;49790.81;;;-146.94;96.05
56737;BME280;42618;51.226;4.910;2023-04-12T12:17:15;49842.63;;;-146.94;94.05
56737;BME280;42618;51.226;4.910;2023-04-12T12:19:44;49808.75;;;-146.94;95.59
56737;BME280;42618;51.226;4.910;2023-04-12T12:22:12;49788.81;;;-146.94;98.14
56737;BME280;42618;51.226;4.910;2023-04-12T12:24:44;49844.63;;;-146.94;98.43
56737;BME280;42618;51.226;4.910;2023-04-12T12:27:13;49806.75;;;-146.94;100.00
56737;BME280;42618;51.226;4.910;2023-04-12T12:29:42;49854.59;;;-146.94;100.00
56737;BME280;42618;51.226;4.910;2023-04-12T12:32:11;49842.63;;;-146.94;100.00
56737;BME280;42618;51.226;4.910;2023-04-12T12:34:40;49830.66;;;-146.94;100.00
56737;BME280;42618;51.226;4.910;2023-04-12T12:37:07;49860.56;;;-146.94;100.00
56737;BME280;42618;51.226;4.910;2023-04-12T12:39:35;49852.59;;;-146.94;100.00
56737;BME280;42618;51.226;4.910;2023-04-12T12:42:01;49840.63;;;-146.94;100.00
56737;BME280;42618;51.226;4.910;2023-04-12T12:44:31;49814.72;;;-146.94;100.00
56737;BME280;42618;51.226;4.910;2023-04-12T12:47:03;49812.72;;;-146.94;100.00
56737;BME280;42618;51.226;4.910;2023-04-12T12:49:40;49810.75;;;-146.94;100.00
56737;BME280;42618;51.226;4.910;2023-04-12T12:52:06;49814.72;;;-146.94;100.00
56737;BME280;42618;51.226;4.910;2023-04-12T12:54:33;49832.66;;;-146.94;100.00
56737;BME280;42618;51.226;4.910;2023-04-12T12:57:07;49794.78;;;-146.94;100.00
56737;BME280;42618;51.226;4.910;2023-04-12T12:59:33;49802.75;;;-146.94;100.00
56737;BME280;42618;51.226;4.910;2023-04-12T13:02:00;49810.75;;;-146.94;100.00
56737;BME280;42618;51.226;4.910;2023-04-12T13:04:28;49832.66;;;-146.94;100.00
56737;BME280;42618;51.226;4.910;2023-04-12T13:06:55;49782.81;;;-146.94;100.00
56737;BME280;42618;51.226;4.910;2023-04-12T13:09:21;49778.84;;;-146.94;100.00